createdAt,value
2019-04-05T00:01:23.546Z,72.98
2019-04-05T00:03:52.287Z,73.49
2019-04-05T00:06:20.778Z,72.94
2019-04-05T00:08:49.281Z,73.51
2019-04-05T00:11:18.064Z,72.93
2019-04-05T00:13:46.525Z,72.87
2019-04-05T00:16:14.996Z,73.19
2019-04-05T00:18:43.500Z,73.08
2019-04-05T00:21:11.978Z,72.98
2019-04-05T00:23:40.457Z,73.32
2019-04-05T00:26:09.202Z,73.03
2019-04-05T00:28:37.654Z,73.11
2019-04-05T00:31:06.135Z,73.29
2019-04-05T00:33:34.586Z,72.93
2019-04-05T00:36:03.075Z,73.61
2019-04-05T00:38:31.555Z,73.11
2019-04-05T00:41:00.045Z,72.98
2019-04-05T00:43:28.514Z,73.25
2019-04-05T00:45:57.087Z,73.42
2019-04-05T00:48:25.579Z,73.24
2019-04-05T00:50:54.050Z,74.04
2019-04-05T00:53:22.862Z,74.00
2019-04-05T00:55:51.405Z,73.41
2019-04-05T00:58:19.862Z,73.47
2019-04-05T01:00:48.353Z,73.54
2019-04-05T01:03:16.835Z,73.43
2019-04-05T01:05:45.638Z,73.61
2019-04-05T01:08:14.093Z,73.48
2019-04-05T01:10:42.594Z,73.63
2019-04-05T01:13:11.088Z,74.13
2019-04-05T01:15:41.041Z,73.52
2019-04-05T01:18:10.070Z,73.56
2019-04-05T01:20:38.561Z,73.49
2019-04-05T01:23:07.072Z,74.29
2019-04-05T01:25:36.569Z,73.67
2019-04-05T01:28:05.039Z,73.85
2019-04-05T01:30:33.517Z,74.30
2019-04-05T01:33:02.299Z,74.20
2019-04-05T01:35:30.805Z,74.12
2019-04-05T01:37:59.389Z,74.03
2019-04-05T01:40:28.553Z,73.78
2019-04-05T01:42:57.074Z,73.72
2019-04-05T01:45:25.553Z,73.56
2019-04-05T01:47:54.030Z,73.83
2019-04-05T01:50:22.516Z,73.86
2019-04-05T01:52:50.988Z,74.22
2019-04-05T01:55:19.480Z,74.18
2019-04-05T01:57:47.958Z,74.17
2019-04-05T02:00:16.715Z,74.35
2019-04-05T02:02:45.203Z,74.52
2019-04-05T02:05:13.693Z,74.40
2019-04-05T02:07:42.176Z,74.12
2019-04-05T02:10:10.713Z,74.21
2019-04-05T02:12:39.213Z,74.02
2019-04-05T02:15:07.675Z,74.41
2019-04-05T02:17:36.218Z,74.28
2019-04-05T02:20:05.331Z,74.19
2019-04-05T02:22:33.810Z,73.99
2019-04-05T02:25:02.560Z,74.00
2019-04-05T02:27:31.056Z,73.88
2019-04-05T02:29:59.514Z,73.91
2019-04-05T02:32:28.001Z,73.88
2019-04-05T02:34:56.487Z,73.97
2019-04-05T02:37:24.979Z,74.07
2019-04-05T02:39:53.467Z,74.12
2019-04-05T02:42:22.070Z,74.05
2019-04-05T02:44:50.545Z,74.11
2019-04-05T02:47:19.282Z,74.36
2019-04-05T02:49:47.740Z,74.40
2019-04-05T02:52:16.270Z,74.58
2019-04-05T02:54:44.928Z,74.57
2019-04-05T02:57:13.409Z,74.45
2019-04-05T02:59:41.868Z,74.36
2019-04-05T03:02:10.330Z,74.32
2019-04-05T03:04:38.864Z,74.25
2019-04-05T03:07:07.322Z,74.67
2019-04-05T03:09:35.890Z,74.81
2019-04-05T03:12:04.471Z,74.98
2019-04-05T03:14:33.004Z,75.00
2019-04-05T03:17:01.494Z,74.95
2019-04-05T03:19:31.259Z,74.95
2019-04-05T03:22:03.108Z,74.75
2019-04-05T03:24:31.640Z,74.61
2019-04-05T03:27:02.558Z,74.51
2019-04-05T03:29:31.056Z,74.50
2019-04-05T03:31:59.589Z,74.33
2019-04-05T03:34:28.164Z,74.47
2019-04-05T03:36:56.630Z,74.62
2019-04-05T03:39:25.170Z,74.54
2019-04-05T03:41:53.922Z,74.42
2019-04-05T03:44:23.357Z,74.36
2019-04-05T03:46:56.980Z,74.35
2019-04-05T03:49:22.544Z,74.54
2019-04-05T03:51:51.017Z,74.89
2019-04-05T03:54:19.466Z,74.67
2019-04-05T03:56:47.932Z,74.59
2019-04-05T03:59:16.403Z,74.46
2019-04-05T04:01:44.863Z,74.68
2019-04-05T04:04:13.346Z,74.81
2019-04-05T04:06:41.877Z,75.15
2019-04-05T04:09:10.357Z,74.80
2019-04-05T04:11:38.868Z,74.52
2019-04-05T04:14:07.546Z,74.39
2019-04-05T04:16:36.247Z,74.16
2019-04-05T04:19:04.752Z,74.01
2019-04-05T04:21:43.483Z,73.91
2019-04-05T04:24:11.995Z,73.83
2019-04-05T04:26:40.617Z,73.88
2019-04-05T04:29:09.101Z,73.87
2019-04-05T04:31:37.588Z,73.84
2019-04-05T04:34:06.684Z,73.80
2019-04-05T04:36:35.244Z,73.88
2019-04-05T04:39:04.970Z,73.91
2019-04-05T04:41:33.447Z,73.77
2019-04-05T04:44:02.022Z,73.69
2019-04-05T04:46:30.479Z,73.80
2019-04-05T04:48:58.991Z,73.72
2019-04-05T04:51:27.482Z,73.83
2019-04-05T04:53:56.063Z,73.88
2019-04-05T04:56:24.602Z,74.12
2019-04-05T04:58:53.181Z,74.15
2019-04-05T05:01:21.764Z,74.23
2019-04-05T05:03:50.241Z,74.24
2019-04-05T05:06:18.829Z,74.51
2019-04-05T05:08:47.319Z,74.63
2019-04-05T05:11:15.791Z,74.37
2019-04-05T05:13:44.270Z,74.30
2019-04-05T05:16:12.756Z,74.51
2019-04-05T05:18:41.227Z,74.22
2019-04-05T05:21:09.719Z,75.49
2019-04-05T05:23:38.209Z,72.90
2019-04-05T05:26:06.900Z,72.28
2019-04-05T05:28:35.567Z,73.32
2019-04-05T05:31:04.073Z,73.79
2019-04-05T05:33:32.593Z,74.31
2019-04-05T05:36:01.101Z,74.59
2019-04-05T05:38:30.098Z,74.21
2019-04-05T05:40:58.586Z,74.18
2019-04-05T05:43:27.099Z,74.33
2019-04-05T05:45:55.586Z,74.32
2019-04-05T05:48:24.084Z,74.12
2019-04-05T05:50:52.597Z,73.96
2019-04-05T05:53:21.120Z,73.97
2019-04-05T05:55:49.618Z,74.13
2019-04-05T05:58:18.411Z,74.17
2019-04-05T06:00:47.153Z,74.04
2019-04-05T06:03:16.687Z,73.87
2019-04-05T06:05:45.391Z,73.90
2019-04-05T06:08:13.875Z,73.83
2019-04-05T06:10:42.396Z,73.94
2019-04-05T06:13:11.178Z,74.36
2019-04-05T06:15:39.957Z,74.25
2019-04-05T06:18:11.924Z,73.99
2019-04-05T06:20:38.631Z,73.91
2019-04-05T06:23:07.403Z,73.85
2019-04-05T06:25:35.881Z,73.89
2019-04-05T06:28:04.362Z,73.86
2019-04-05T06:30:32.941Z,73.91
2019-04-05T06:33:01.424Z,73.97
2019-04-05T06:35:29.897Z,74.17
2019-04-05T06:37:58.364Z,74.36
2019-04-05T06:40:39.659Z,74.35
2019-04-05T06:42:57.332Z,74.10
2019-04-05T06:45:25.813Z,73.78
2019-04-05T06:47:54.547Z,73.66
2019-04-05T06:50:23.020Z,73.67
2019-04-05T06:52:51.520Z,73.61
2019-04-05T06:55:19.972Z,73.60
2019-04-05T06:57:48.469Z,73.32
2019-04-05T07:00:20.050Z,73.07
2019-04-05T07:02:48.537Z,72.99
2019-04-05T07:05:17.022Z,73.21
2019-04-05T07:07:45.499Z,73.10
2019-04-05T07:10:13.939Z,72.94
2019-04-05T07:12:42.468Z,72.93
2019-04-05T07:15:10.911Z,72.70
2019-04-05T07:17:39.472Z,72.67
2019-04-05T07:20:08.551Z,72.74
2019-04-05T07:22:39.453Z,72.77
2019-04-05T07:25:07.439Z,72.83
2019-04-05T07:27:35.956Z,72.79
2019-04-05T07:30:04.869Z,72.75
2019-04-05T07:32:33.333Z,72.64
2019-04-05T07:35:02.138Z,72.54
2019-04-05T07:37:30.624Z,72.38
2019-04-05T07:39:59.146Z,72.22
2019-04-05T07:42:27.609Z,72.47
2019-04-05T07:44:56.087Z,72.30
2019-04-05T07:47:24.541Z,72.33
2019-04-05T07:49:53.298Z,72.30
2019-04-05T07:52:21.775Z,72.05
2019-04-05T07:54:50.270Z,72.10
2019-04-05T07:57:18.753Z,72.04
2019-04-05T07:59:47.247Z,72.09
2019-04-05T08:02:15.765Z,72.32
2019-04-05T08:04:44.403Z,72.90
2019-04-05T08:07:13.476Z,72.52
2019-04-05T08:09:41.944Z,72.00
2019-04-05T08:12:10.403Z,71.67
2019-04-05T08:14:38.986Z,71.59
2019-04-05T08:17:07.456Z,71.40
2019-04-05T08:19:35.938Z,71.20
2019-04-05T08:22:04.487Z,71.18
2019-04-05T08:24:32.979Z,71.36
2019-04-05T08:27:01.449Z,71.68
2019-04-05T08:29:29.930Z,71.26
2019-04-05T08:31:58.420Z,71.00
2019-04-05T08:34:26.895Z,71.17
2019-04-05T08:36:55.369Z,71.98
2019-04-05T08:39:23.899Z,72.48
2019-04-05T08:41:52.376Z,72.68
2019-04-05T08:44:20.860Z,72.04
2019-04-05T08:46:49.361Z,71.60
2019-04-05T08:49:17.841Z,71.72
2019-04-05T08:51:46.315Z,71.64
2019-04-05T08:54:14.806Z,71.13
2019-04-05T08:56:43.290Z,70.78
2019-04-05T08:59:12.085Z,70.57
2019-04-05T09:01:40.578Z,70.48
2019-04-05T09:04:09.052Z,70.38
2019-04-05T09:06:37.583Z,70.75
2019-04-05T09:09:07.203Z,70.70
2019-04-05T09:11:35.987Z,70.84
2019-04-05T09:14:04.599Z,70.98
2019-04-05T09:16:33.084Z,70.67
2019-04-05T09:19:01.710Z,70.51
2019-04-05T09:21:30.234Z,70.25
2019-04-05T09:23:59.441Z,70.00
2019-04-05T09:26:28.052Z,69.71
2019-04-05T09:28:56.519Z,69.62
2019-04-05T09:31:25.590Z,70.04
2019-04-05T09:33:54.113Z,70.00
2019-04-05T09:36:22.656Z,70.62
2019-04-05T09:38:51.138Z,70.30
2019-04-05T09:41:19.644Z,69.79
2019-04-05T09:43:48.131Z,69.68
2019-04-05T09:46:16.616Z,69.33
2019-04-05T09:48:45.104Z,69.31
2019-04-05T09:51:13.698Z,68.88
2019-04-05T09:53:42.188Z,68.84
2019-04-05T09:56:10.680Z,68.72
2019-04-05T09:58:39.177Z,68.55
2019-04-05T10:01:07.666Z,68.54
2019-04-05T10:03:36.156Z,68.50
2019-04-05T10:06:04.912Z,68.60
2019-04-05T10:08:33.393Z,68.75
2019-04-05T10:11:02.095Z,68.83
2019-04-05T10:13:30.574Z,68.42
2019-04-05T10:15:59.043Z,68.30
2019-04-05T10:18:27.506Z,67.89
2019-04-05T10:20:55.972Z,67.99
2019-04-05T10:23:24.487Z,68.60
2019-04-05T10:25:52.986Z,68.73
2019-04-05T10:28:21.453Z,68.68
2019-04-05T10:30:51.972Z,69.07
2019-04-05T10:33:20.215Z,69.11
2019-04-05T10:35:48.724Z,68.89
2019-04-05T10:38:17.204Z,68.45
2019-04-05T10:40:45.700Z,68.14
2019-04-05T10:43:14.238Z,68.31
2019-04-05T10:45:42.723Z,68.04
2019-04-05T10:48:11.234Z,67.57
2019-04-05T10:50:39.738Z,67.31
2019-04-05T10:53:08.220Z,66.69
2019-04-05T10:55:36.758Z,66.20
2019-04-05T10:58:05.440Z,65.89
2019-04-05T11:00:33.955Z,65.85
2019-04-05T11:03:02.433Z,65.75
2019-04-05T11:05:31.010Z,65.43
2019-04-05T11:07:59.509Z,65.35
2019-04-05T11:10:28.014Z,64.94
2019-04-05T11:12:56.484Z,64.91
2019-04-05T11:15:24.963Z,65.85
2019-04-05T11:17:53.590Z,66.16
2019-04-05T11:20:22.817Z,65.81
2019-04-05T11:22:51.485Z,65.42
2019-04-05T11:25:20.786Z,65.46
2019-04-05T11:27:50.045Z,64.83
2019-04-05T11:30:35.783Z,64.23
2019-04-05T11:33:04.294Z,63.98
2019-04-05T11:35:32.796Z,63.53
2019-04-05T11:38:01.302Z,63.40
2019-04-05T11:40:29.771Z,62.58
2019-04-05T11:42:58.239Z,62.27
2019-04-05T11:45:26.723Z,62.36
2019-04-05T11:47:55.696Z,62.19
2019-04-05T11:50:34.526Z,62.37
2019-04-05T11:52:55.712Z,62.94
2019-04-05T11:55:24.207Z,63.73
2019-04-05T11:57:54.763Z,63.60
2019-04-05T12:00:28.378Z,63.47
2019-04-05T12:03:00.075Z,63.31
2019-04-05T12:05:28.868Z,63.07
2019-04-05T12:08:00.964Z,62.88
2019-04-05T12:10:27.634Z,62.67
2019-04-05T12:12:56.100Z,62.27
2019-04-05T12:15:24.589Z,62.14
2019-04-05T12:17:53.067Z,61.94
2019-04-05T12:20:21.541Z,61.71
2019-04-05T12:22:52.480Z,61.85
2019-04-05T12:25:20.267Z,61.48
2019-04-05T12:27:48.734Z,61.14
2019-04-05T12:30:19.947Z,60.89
2019-04-05T12:32:48.914Z,60.54
2019-04-05T12:35:21.389Z,60.15
2019-04-05T12:37:50.611Z,60.03
2019-04-05T12:40:18.315Z,60.50
2019-04-05T12:42:46.809Z,59.93
2019-04-05T12:45:15.642Z,59.19
2019-04-05T12:47:45.589Z,58.80
2019-04-05T12:50:15.324Z,58.13
2019-04-05T12:52:44.063Z,58.31
2019-04-05T12:55:12.532Z,59.05
2019-04-05T12:57:41.344Z,59.31
2019-04-05T13:00:13.217Z,59.26
2019-04-05T13:02:40.485Z,58.98
2019-04-05T13:05:08.972Z,58.46
2019-04-05T13:07:37.439Z,58.48
2019-04-05T13:10:06.212Z,60.61
2019-04-05T13:12:34.683Z,58.04
2019-04-05T13:15:11.728Z,55.40
2019-04-05T13:17:33.474Z,54.27
2019-04-05T13:20:01.958Z,54.07
2019-04-05T13:22:32.559Z,54.35
2019-04-05T13:25:00.661Z,54.65
2019-04-05T13:27:29.439Z,54.85
2019-04-05T13:29:57.914Z,54.69
2019-04-05T13:32:26.418Z,55.00
2019-04-05T13:34:55.852Z,54.41
2019-04-05T13:37:24.952Z,54.02
2019-04-05T13:39:53.427Z,55.03
2019-04-05T13:42:21.893Z,55.23
2019-04-05T13:44:50.362Z,56.80
2019-04-05T13:47:19.150Z,56.47
2019-04-05T13:49:47.655Z,57.70
2019-04-05T13:52:16.142Z,59.26
2019-04-05T13:54:44.639Z,59.49
2019-04-05T13:57:13.091Z,58.11
2019-04-05T13:59:44.464Z,57.95
2019-04-05T14:02:11.784Z,59.21
2019-04-05T14:04:40.244Z,58.94
2019-04-05T14:07:08.730Z,57.65
2019-04-05T14:09:38.490Z,57.55
2019-04-05T14:12:09.663Z,58.42
2019-04-05T14:14:39.436Z,59.05
2019-04-05T14:17:07.867Z,58.37
2019-04-05T14:19:36.432Z,59.23
2019-04-05T14:22:08.818Z,58.36
2019-04-05T14:24:35.095Z,56.91
2019-04-05T14:27:04.033Z,56.29
2019-04-05T14:29:33.333Z,56.66
2019-04-05T14:32:19.436Z,57.52
2019-04-05T14:34:32.489Z,58.61
2019-04-05T14:37:00.952Z,58.00
2019-04-05T14:39:29.432Z,56.38
2019-04-05T14:42:09.147Z,56.22
2019-04-05T14:44:28.338Z,56.18
2019-04-05T14:46:58.105Z,57.09
2019-04-05T14:49:30.258Z,57.64
2019-04-05T14:52:00.734Z,56.21
2019-04-05T14:54:30.186Z,55.20
2019-04-05T14:57:02.422Z,54.73
2019-04-05T14:59:28.309Z,55.78
2019-04-05T15:01:56.850Z,55.91
2019-04-05T15:04:25.327Z,54.73
2019-04-05T15:06:54.616Z,55.08
2019-04-05T15:09:25.544Z,54.69
2019-04-05T15:11:53.399Z,54.08
2019-04-05T15:14:21.893Z,55.18
2019-04-05T15:16:50.367Z,54.49
2019-04-05T15:19:19.157Z,55.33
2019-04-05T15:21:47.639Z,55.19
2019-04-05T15:24:17.147Z,54.95
2019-04-05T15:26:45.686Z,54.60
2019-04-05T15:29:14.179Z,54.60
2019-04-05T15:31:42.674Z,55.74
2019-04-05T15:34:11.134Z,56.81
2019-04-05T15:36:39.596Z,56.63
2019-04-05T15:39:08.918Z,55.56
2019-04-05T15:41:37.559Z,55.42
2019-04-05T15:44:06.098Z,54.65
2019-04-05T15:46:34.892Z,55.13
2019-04-05T15:49:03.382Z,58.06
2019-04-05T15:51:31.846Z,60.14
2019-04-05T15:54:01.399Z,61.06
2019-04-05T15:56:33.355Z,61.55
2019-04-05T15:59:03.597Z,61.31
2019-04-05T16:01:32.119Z,61.50
2019-04-05T16:04:02.820Z,61.73
2019-04-05T16:06:31.802Z,62.36
2019-04-05T16:09:00.343Z,62.46
2019-04-05T16:11:28.832Z,62.74
2019-04-05T16:13:57.607Z,62.98
2019-04-05T16:16:26.566Z,63.26
2019-04-05T16:18:55.067Z,63.35
2019-04-05T16:21:25.433Z,63.30
2019-04-05T16:23:53.982Z,63.02
2019-04-05T16:26:22.446Z,63.38
2019-04-05T16:28:50.927Z,63.55
2019-04-05T16:31:19.406Z,63.03
2019-04-05T16:33:47.914Z,63.14
2019-04-05T16:36:16.485Z,63.38
2019-04-05T16:38:44.982Z,63.47
2019-04-05T16:41:13.494Z,63.82
2019-04-05T16:43:42.086Z,63.84
2019-04-05T16:46:11.428Z,63.72
2019-04-05T16:48:39.927Z,63.53
2019-04-05T16:51:08.464Z,64.03
2019-04-05T16:53:38.605Z,64.15
2019-04-05T16:56:07.137Z,63.82
2019-04-05T16:58:35.624Z,63.77
2019-04-05T17:01:04.105Z,63.94
2019-04-05T17:03:32.902Z,62.49
2019-04-05T17:06:01.391Z,59.47
2019-04-05T17:08:29.872Z,59.29
2019-04-05T17:10:58.352Z,60.78
2019-04-05T17:13:26.837Z,62.27
2019-04-05T17:15:55.651Z,63.57
2019-04-05T17:18:24.186Z,64.11
2019-04-05T17:20:52.677Z,64.19
2019-04-05T17:23:21.150Z,64.10
2019-04-05T17:25:49.647Z,64.62
2019-04-05T17:28:18.144Z,64.71
2019-04-05T17:30:47.288Z,64.53
2019-04-05T17:33:15.763Z,64.41
2019-04-05T17:35:44.277Z,64.61
2019-04-05T17:38:12.747Z,64.89
2019-04-05T17:40:41.590Z,65.13
2019-04-05T17:43:10.058Z,65.30
2019-04-05T17:45:38.571Z,65.23
2019-04-05T17:48:07.350Z,65.78
2019-04-05T17:50:35.839Z,65.89
2019-04-05T17:53:12.020Z,65.66
2019-04-05T17:55:34.660Z,65.43
2019-04-05T17:58:05.053Z,65.16
2019-04-05T18:00:33.539Z,64.96
2019-04-05T18:03:02.067Z,65.44
2019-04-05T18:05:30.556Z,65.55
2019-04-05T18:07:59.042Z,65.29
2019-04-05T18:10:27.520Z,64.97
2019-04-05T18:12:56.008Z,64.92
2019-04-05T18:15:24.575Z,65.50
2019-04-05T18:17:53.412Z,65.83
2019-04-05T18:20:21.872Z,66.11
2019-04-05T18:22:50.389Z,66.17
2019-04-05T18:25:18.916Z,66.11
2019-04-05T18:27:47.392Z,66.11
2019-04-05T18:30:16.081Z,66.15
2019-04-05T18:32:44.582Z,66.32
2019-04-05T18:35:13.358Z,66.40
2019-04-05T18:37:41.946Z,66.38
2019-04-05T18:40:11.034Z,66.56
2019-04-05T18:42:39.524Z,66.52
2019-04-05T18:45:07.988Z,66.50
2019-04-05T18:47:36.486Z,66.67
2019-04-05T18:50:05.364Z,66.86
2019-04-05T18:52:33.852Z,66.99
2019-04-05T18:55:02.702Z,66.92
2019-04-05T18:57:31.459Z,66.97
2019-04-05T18:59:59.978Z,66.41
2019-04-05T19:02:28.460Z,66.58
2019-04-05T19:04:56.965Z,66.97
2019-04-05T19:07:25.484Z,66.57
2019-04-05T19:09:53.977Z,66.74
2019-04-05T19:12:22.483Z,66.93
2019-04-05T19:14:51.477Z,66.82
2019-04-05T19:17:24.129Z,66.88
2019-04-05T19:19:50.190Z,66.83
2019-04-05T19:22:18.670Z,66.82
2019-04-05T19:24:47.176Z,67.06
2019-04-05T19:27:15.642Z,67.02
2019-04-05T19:29:44.114Z,66.94
2019-04-05T19:49:44.463Z,67.63
2019-04-05T19:52:12.953Z,67.38
2019-04-05T19:54:41.436Z,67.07
2019-04-05T19:57:09.976Z,67.42
2019-04-05T19:59:38.478Z,67.74
2019-04-05T20:02:07.104Z,67.74
2019-04-05T20:04:35.920Z,67.87
2019-04-05T20:07:04.728Z,68.27
2019-04-05T20:09:33.228Z,68.10
2019-04-05T20:12:01.701Z,68.20
2019-04-05T20:14:30.204Z,67.90
2019-04-05T20:16:58.715Z,67.61
2019-04-05T20:19:27.235Z,67.74
2019-04-05T20:21:55.919Z,67.55
2019-04-05T20:24:25.208Z,67.20
2019-04-05T20:26:53.707Z,67.56
2019-04-05T20:29:22.287Z,67.68
2019-04-05T20:31:50.827Z,67.75
2019-04-05T20:34:19.313Z,67.76
2019-04-05T20:36:47.838Z,67.76
2019-04-05T20:39:16.387Z,67.58
2019-04-05T20:41:45.125Z,67.74
2019-04-05T20:44:13.622Z,67.87
2019-04-05T20:46:42.116Z,67.65
2019-04-05T20:49:12.022Z,67.61
2019-04-05T20:51:40.560Z,67.55
2019-04-05T20:54:09.025Z,67.84
2019-04-05T20:56:37.561Z,68.21
2019-04-05T20:59:06.074Z,68.30
2019-04-05T21:01:34.613Z,70.42
2019-04-05T21:04:03.060Z,65.43
2019-04-05T21:06:31.557Z,62.52
2019-04-05T21:09:00.404Z,60.16
2019-04-05T21:11:28.874Z,59.80
2019-04-05T21:13:57.388Z,61.54
2019-04-05T21:16:26.154Z,64.73
2019-04-05T21:18:54.634Z,66.70
2019-04-05T21:21:23.472Z,67.80
2019-04-05T21:23:51.960Z,68.06
2019-04-05T21:26:20.460Z,68.59
2019-04-05T21:28:48.961Z,68.66
2019-04-05T21:31:17.472Z,68.38
2019-04-05T21:33:46.078Z,68.17
2019-04-05T21:36:14.578Z,68.09
2019-04-05T21:38:43.074Z,68.06
2019-04-05T21:41:13.193Z,68.31
2019-04-05T21:43:41.847Z,68.36
2019-04-05T21:46:10.349Z,68.36
2019-04-05T21:48:38.883Z,68.35
2019-04-05T21:51:07.386Z,68.37
2019-04-05T21:53:36.007Z,68.36
2019-04-05T21:56:04.575Z,68.58
2019-04-05T21:58:33.086Z,68.67
2019-04-05T22:01:05.174Z,68.56
2019-04-05T22:03:33.698Z,68.62
2019-04-05T22:06:02.206Z,68.57
2019-04-05T22:08:30.719Z,68.52
2019-04-05T22:10:59.181Z,68.55
2019-04-05T22:13:27.700Z,68.64
2019-04-05T22:15:56.177Z,68.63
2019-04-05T22:18:24.678Z,68.63
2019-04-05T22:20:53.423Z,68.61
2019-04-05T22:23:22.214Z,68.62
2019-04-05T22:25:50.753Z,68.67
2019-04-05T22:28:19.566Z,68.68
2019-04-05T22:30:48.078Z,68.75
2019-04-05T22:33:16.574Z,68.80
2019-04-05T22:35:45.085Z,68.83
2019-04-05T22:38:13.554Z,68.87
2019-04-05T22:40:42.060Z,68.97
2019-04-05T22:43:10.550Z,68.96
2019-04-05T22:45:39.358Z,68.92
2019-04-05T22:48:07.823Z,68.98
2019-04-05T22:50:36.357Z,69.00
2019-04-05T22:53:04.850Z,69.07
2019-04-05T22:55:33.331Z,69.04
2019-04-05T22:58:02.086Z,69.10
2019-04-05T23:00:30.581Z,69.18
2019-04-05T23:02:59.447Z,69.14
2019-04-05T23:05:27.929Z,69.21
2019-04-05T23:07:56.499Z,69.23
2019-04-05T23:10:25.024Z,69.28
2019-04-05T23:12:53.506Z,69.29
2019-04-05T23:15:22.029Z,69.32
2019-04-05T23:17:50.539Z,69.23
2019-04-05T23:20:19.359Z,69.25
2019-04-05T23:22:47.893Z,69.25
2019-04-05T23:25:21.747Z,69.26
2019-04-05T23:27:46.602Z,69.37
2019-04-05T23:30:15.099Z,69.57
2019-04-05T23:32:43.601Z,69.60
2019-04-05T23:35:12.092Z,69.64
2019-04-05T23:37:40.572Z,69.79
2019-04-05T23:40:09.168Z,69.79
2019-04-05T23:42:37.990Z,69.86
2019-04-05T23:45:06.552Z,69.90
2019-04-05T23:47:35.035Z,69.81
2019-04-05T23:50:03.548Z,69.75
2019-04-05T23:52:32.037Z,69.74
2019-04-05T23:55:00.510Z,69.75
2019-04-05T23:57:29.295Z,69.75
2019-04-05T23:59:57.755Z,69.87
